sensor_id;sensor_type;location;lat;lon;timestamp;P1;durP1;ratioP1;P2;durP2;ratioP2
43678;SDS011;29279;50.858;4.392;2022-09-02T00:02:22;5.03;;;2.40;;
43678;SDS011;29279;50.858;4.392;2022-09-02T00:04:48;11.00;;;2.90;;
43678;SDS011;29279;50.858;4.392;2022-09-02T00:07:14;6.00;;;2.53;;
43678;SDS011;29279;50.858;4.392;2022-09-02T00:09:39;5.03;;;2.45;;
43678;SDS011;29279;50.858;4.392;2022-09-02T00:12:05;6.68;;;2.08;;
43678;SDS011;29279;50.858;4.392;2022-09-02T00:14:33;10.45;;;2.85;;
43678;SDS011;29279;50.858;4.392;2022-09-02T00:17:00;9.05;;;2.45;;
43678;SDS011;29279;50.858;4.392;2022-09-02T00:19:27;5.78;;;2.33;;
43678;SDS011;29279;50.858;4.392;2022-09-02T00:21:54;5.28;;;2.25;;
43678;SDS011;29279;50.858;4.392;2022-09-02T00:24:21;5.65;;;2.33;;
43678;SDS011;29279;50.858;4.392;2022-09-02T00:26:48;4.07;;;1.83;;
43678;SDS011;29279;50.858;4.392;2022-09-02T00:29:14;6.65;;;2.50;;
43678;SDS011;29279;50.858;4.392;2022-09-02T00:31:42;4.47;;;1.90;;
43678;SDS011;29279;50.858;4.392;2022-09-02T00:34:09;13.95;;;2.40;;
43678;SDS011;29279;50.858;4.392;2022-09-02T00:36:36;4.72;;;2.00;;
43678;SDS011;29279;50.858;4.392;2022-09-02T00:39:03;3.55;;;2.25;;
43678;SDS011;29279;50.858;4.392;2022-09-02T00:41:29;3.53;;;2.20;;
43678;SDS011;29279;50.858;4.392;2022-09-02T00:44:00;3.72;;;1.92;;
43678;SDS011;29279;50.858;4.392;2022-09-02T00:46:30;5.07;;;2.30;;
43678;SDS011;29279;50.858;4.392;2022-09-02T00:51:39;4.32;;;2.38;;
43678;SDS011;29279;50.858;4.392;2022-09-02T00:54:17;9.52;;;2.55;;
43678;SDS011;29279;50.858;4.392;2022-09-02T00:56:45;8.05;;;2.00;;
43678;SDS011;29279;50.858;4.392;2022-09-02T00:59:13;10.32;;;2.50;;
43678;SDS011;29279;50.858;4.392;2022-09-02T01:01:43;6.72;;;1.98;;
43678;SDS011;29279;50.858;4.392;2022-09-02T01:04:09;7.43;;;1.90;;
43678;SDS011;29279;50.858;4.392;2022-09-02T01:06:34;10.93;;;2.30;;
43678;SDS011;29279;50.858;4.392;2022-09-02T01:09:02;3.58;;;2.15;;
43678;SDS011;29279;50.858;4.392;2022-09-02T01:11:35;3.80;;;1.95;;
43678;SDS011;29279;50.858;4.392;2022-09-02T01:14:15;4.22;;;2.25;;
43678;SDS011;29279;50.858;4.392;2022-09-02T01:16:43;7.00;;;2.00;;
43678;SDS011;29279;50.858;4.392;2022-09-02T01:19:19;4.40;;;2.05;;
43678;SDS011;29279;50.858;4.392;2022-09-02T01:21:50;5.28;;;2.30;;
43678;SDS011;29279;50.858;4.392;2022-09-02T01:24:21;4.90;;;2.60;;
43678;SDS011;29279;50.858;4.392;2022-09-02T01:26:50;4.97;;;2.13;;
43678;SDS011;29279;50.858;4.392;2022-09-02T01:29:18;6.53;;;2.28;;
43678;SDS011;29279;50.858;4.392;2022-09-02T01:31:44;10.07;;;2.10;;
43678;SDS011;29279;50.858;4.392;2022-09-02T01:34:09;8.43;;;1.90;;
43678;SDS011;29279;50.858;4.392;2022-09-02T01:36:39;7.30;;;1.92;;
43678;SDS011;29279;50.858;4.392;2022-09-02T01:39:07;4.07;;;2.17;;
43678;SDS011;29279;50.858;4.392;2022-09-02T01:41:34;8.35;;;2.25;;
43678;SDS011;29279;50.858;4.392;2022-09-02T01:43:59;6.68;;;2.13;;
43678;SDS011;29279;50.858;4.392;2022-09-02T01:46:25;6.22;;;2.65;;
43678;SDS011;29279;50.858;4.392;2022-09-02T01:48:51;3.53;;;1.88;;
43678;SDS011;29279;50.858;4.392;2022-09-02T01:51:18;5.88;;;2.17;;
43678;SDS011;29279;50.858;4.392;2022-09-02T01:53:45;4.38;;;2.08;;
43678;SDS011;29279;50.858;4.392;2022-09-02T01:56:12;3.80;;;2.10;;
43678;SDS011;29279;50.858;4.392;2022-09-02T01:58:39;7.28;;;1.90;;
43678;SDS011;29279;50.858;4.392;2022-09-02T02:01:05;5.47;;;2.28;;
43678;SDS011;29279;50.858;4.392;2022-09-02T02:03:31;16.17;;;2.60;;
43678;SDS011;29279;50.858;4.392;2022-09-02T02:05:57;7.65;;;2.42;;
43678;SDS011;29279;50.858;4.392;2022-09-02T02:08:23;6.78;;;2.13;;
43678;SDS011;29279;50.858;4.392;2022-09-02T02:10:49;3.80;;;2.38;;
43678;SDS011;29279;50.858;4.392;2022-09-02T02:13:15;6.13;;;2.92;;
43678;SDS011;29279;50.858;4.392;2022-09-02T02:15:42;9.93;;;2.78;;
43678;SDS011;29279;50.858;4.392;2022-09-02T02:18:09;7.15;;;2.60;;
43678;SDS011;29279;50.858;4.392;2022-09-02T02:20:36;7.10;;;2.30;;
43678;SDS011;29279;50.858;4.392;2022-09-02T02:23:02;4.40;;;2.15;;
43678;SDS011;29279;50.858;4.392;2022-09-02T02:25:29;10.60;;;2.20;;
43678;SDS011;29279;50.858;4.392;2022-09-02T02:27:55;12.73;;;2.03;;
43678;SDS011;29279;50.858;4.392;2022-09-02T02:30:21;5.75;;;2.40;;
43678;SDS011;29279;50.858;4.392;2022-09-02T02:32:47;4.22;;;2.22;;
43678;SDS011;29279;50.858;4.392;2022-09-02T02:35:14;6.25;;;2.00;;
43678;SDS011;29279;50.858;4.392;2022-09-02T02:37:42;7.75;;;2.47;;
43678;SDS011;29279;50.858;4.392;2022-09-02T02:40:08;8.32;;;2.70;;
43678;SDS011;29279;50.858;4.392;2022-09-02T02:42:35;7.82;;;2.28;;
43678;SDS011;29279;50.858;4.392;2022-09-02T02:45:03;2.90;;;1.90;;
43678;SDS011;29279;50.858;4.392;2022-09-02T02:47:36;10.27;;;2.37;;
43678;SDS011;29279;50.858;4.392;2022-09-02T02:50:04;11.50;;;2.15;;
43678;SDS011;29279;50.858;4.392;2022-09-02T02:52:31;6.10;;;2.42;;
43678;SDS011;29279;50.858;4.392;2022-09-02T02:54:57;6.82;;;2.55;;
43678;SDS011;29279;50.858;4.392;2022-09-02T02:57:23;6.82;;;3.10;;
43678;SDS011;29279;50.858;4.392;2022-09-02T02:59:48;3.70;;;2.55;;
43678;SDS011;29279;50.858;4.392;2022-09-02T03:02:14;7.07;;;2.83;;
43678;SDS011;29279;50.858;4.392;2022-09-02T03:04:41;10.95;;;3.38;;
43678;SDS011;29279;50.858;4.392;2022-09-02T03:07:06;4.90;;;2.53;;
43678;SDS011;29279;50.858;4.392;2022-09-02T03:09:33;4.97;;;2.78;;
43678;SDS011;29279;50.858;4.392;2022-09-02T03:11:59;10.82;;;2.95;;
43678;SDS011;29279;50.858;4.392;2022-09-02T03:14:25;6.90;;;2.97;;
43678;SDS011;29279;50.858;4.392;2022-09-02T03:16:51;8.45;;;2.38;;
43678;SDS011;29279;50.858;4.392;2022-09-02T03:19:17;12.32;;;2.47;;
43678;SDS011;29279;50.858;4.392;2022-09-02T03:21:43;8.75;;;2.42;;
43678;SDS011;29279;50.858;4.392;2022-09-02T03:24:09;9.90;;;2.90;;
43678;SDS011;29279;50.858;4.392;2022-09-02T03:26:36;11.13;;;2.78;;
43678;SDS011;29279;50.858;4.392;2022-09-02T03:29:03;5.72;;;2.88;;
43678;SDS011;29279;50.858;4.392;2022-09-02T03:31:28;14.32;;;2.47;;
43678;SDS011;29279;50.858;4.392;2022-09-02T03:33:54;7.28;;;2.80;;
43678;SDS011;29279;50.858;4.392;2022-09-02T03:36:41;8.05;;;2.50;;
43678;SDS011;29279;50.858;4.392;2022-09-02T03:39:08;7.47;;;2.70;;
43678;SDS011;29279;50.858;4.392;2022-09-02T03:41:35;7.22;;;2.28;;
43678;SDS011;29279;50.858;4.392;2022-09-02T03:44:01;5.90;;;2.67;;
43678;SDS011;29279;50.858;4.392;2022-09-02T03:46:27;8.20;;;2.30;;
43678;SDS011;29279;50.858;4.392;2022-09-02T03:48:52;7.10;;;2.67;;
43678;SDS011;29279;50.858;4.392;2022-09-02T03:51:19;8.30;;;2.60;;
43678;SDS011;29279;50.858;4.392;2022-09-02T03:53:46;7.00;;;2.40;;
43678;SDS011;29279;50.858;4.392;2022-09-02T03:56:13;6.70;;;2.63;;
43678;SDS011;29279;50.858;4.392;2022-09-02T03:58:41;10.18;;;2.50;;
43678;SDS011;29279;50.858;4.392;2022-09-02T04:01:12;5.57;;;2.63;;
43678;SDS011;29279;50.858;4.392;2022-09-02T04:03:39;6.70;;;3.30;;
43678;SDS011;29279;50.858;4.392;2022-09-02T04:06:07;9.40;;;2.95;;
43678;SDS011;29279;50.858;4.392;2022-09-02T04:08:34;11.20;;;2.92;;
43678;SDS011;29279;50.858;4.392;2022-09-02T04:11:03;9.50;;;3.03;;
43678;SDS011;29279;50.858;4.392;2022-09-02T04:13:31;5.18;;;3.05;;
43678;SDS011;29279;50.858;4.392;2022-09-02T04:15:57;9.40;;;3.67;;
43678;SDS011;29279;50.858;4.392;2022-09-02T04:18:23;6.78;;;3.10;;
43678;SDS011;29279;50.858;4.392;2022-09-02T04:20:49;10.55;;;2.92;;
43678;SDS011;29279;50.858;4.392;2022-09-02T04:23:14;11.40;;;3.00;;
43678;SDS011;29279;50.858;4.392;2022-09-02T04:25:41;7.63;;;3.58;;
43678;SDS011;29279;50.858;4.392;2022-09-02T04:28:07;9.65;;;3.63;;
43678;SDS011;29279;50.858;4.392;2022-09-02T04:30:33;10.68;;;3.20;;
43678;SDS011;29279;50.858;4.392;2022-09-02T04:33:03;6.05;;;2.78;;
43678;SDS011;29279;50.858;4.392;2022-09-02T04:35:28;4.97;;;3.13;;
43678;SDS011;29279;50.858;4.392;2022-09-02T04:37:54;7.13;;;3.53;;
43678;SDS011;29279;50.858;4.392;2022-09-02T04:40:20;10.15;;;3.78;;
43678;SDS011;29279;50.858;4.392;2022-09-02T04:42:45;7.50;;;3.65;;
43678;SDS011;29279;50.858;4.392;2022-09-02T04:45:11;19.95;;;4.10;;
43678;SDS011;29279;50.858;4.392;2022-09-02T04:47:36;9.20;;;3.20;;
43678;SDS011;29279;50.858;4.392;2022-09-02T04:50:02;10.32;;;3.75;;
43678;SDS011;29279;50.858;4.392;2022-09-02T04:52:30;9.65;;;3.63;;
43678;SDS011;29279;50.858;4.392;2022-09-02T04:54:56;7.30;;;3.30;;
43678;SDS011;29279;50.858;4.392;2022-09-02T04:57:21;7.38;;;3.63;;
43678;SDS011;29279;50.858;4.392;2022-09-02T04:59:47;6.25;;;3.30;;
43678;SDS011;29279;50.858;4.392;2022-09-02T05:02:13;5.88;;;3.47;;
43678;SDS011;29279;50.858;4.392;2022-09-02T05:04:39;7.07;;;3.60;;
43678;SDS011;29279;50.858;4.392;2022-09-02T05:07:04;8.63;;;3.70;;
43678;SDS011;29279;50.858;4.392;2022-09-02T05:09:31;4.55;;;3.35;;
43678;SDS011;29279;50.858;4.392;2022-09-02T05:11:57;6.40;;;3.28;;
43678;SDS011;29279;50.858;4.392;2022-09-02T05:14:28;8.38;;;3.35;;
43678;SDS011;29279;50.858;4.392;2022-09-02T05:16:54;8.48;;;3.67;;
43678;SDS011;29279;50.858;4.392;2022-09-02T05:19:20;6.93;;;3.50;;
43678;SDS011;29279;50.858;4.392;2022-09-02T05:21:47;14.90;;;3.53;;
43678;SDS011;29279;50.858;4.392;2022-09-02T05:24:14;16.30;;;3.28;;
43678;SDS011;29279;50.858;4.392;2022-09-02T05:26:40;10.00;;;3.72;;
43678;SDS011;29279;50.858;4.392;2022-09-02T05:29:07;5.00;;;3.70;;
43678;SDS011;29279;50.858;4.392;2022-09-02T05:31:34;6.53;;;3.33;;
43678;SDS011;29279;50.858;4.392;2022-09-02T05:33:59;9.77;;;3.40;;
43678;SDS011;29279;50.858;4.392;2022-09-02T05:36:25;6.45;;;3.50;;
43678;SDS011;29279;50.858;4.392;2022-09-02T05:38:51;12.48;;;3.30;;
43678;SDS011;29279;50.858;4.392;2022-09-02T05:41:18;9.90;;;3.80;;
43678;SDS011;29279;50.858;4.392;2022-09-02T05:43:50;10.65;;;3.72;;
43678;SDS011;29279;50.858;4.392;2022-09-02T05:46:17;9.60;;;3.65;;
43678;SDS011;29279;50.858;4.392;2022-09-02T05:48:45;7.43;;;3.80;;
43678;SDS011;29279;50.858;4.392;2022-09-02T05:51:29;14.32;;;3.72;;
43678;SDS011;29279;50.858;4.392;2022-09-02T05:53:58;19.60;;;3.88;;
43678;SDS011;29279;50.858;4.392;2022-09-02T05:56:25;10.20;;;3.58;;
43678;SDS011;29279;50.858;4.392;2022-09-02T05:58:54;12.88;;;3.55;;
43678;SDS011;29279;50.858;4.392;2022-09-02T06:01:22;17.13;;;3.90;;
43678;SDS011;29279;50.858;4.392;2022-09-02T06:03:47;14.98;;;3.78;;
43678;SDS011;29279;50.858;4.392;2022-09-02T06:06:14;13.63;;;4.20;;
43678;SDS011;29279;50.858;4.392;2022-09-02T06:08:40;11.50;;;3.95;;
43678;SDS011;29279;50.858;4.392;2022-09-02T06:11:08;9.23;;;3.38;;
43678;SDS011;29279;50.858;4.392;2022-09-02T06:13:36;8.35;;;3.80;;
43678;SDS011;29279;50.858;4.392;2022-09-02T06:16:04;12.82;;;3.22;;
43678;SDS011;29279;50.858;4.392;2022-09-02T06:18:33;13.77;;;4.35;;
43678;SDS011;29279;50.858;4.392;2022-09-02T06:20:58;9.05;;;4.28;;
43678;SDS011;29279;50.858;4.392;2022-09-02T06:23:25;14.32;;;3.67;;
43678;SDS011;29279;50.858;4.392;2022-09-02T06:25:51;10.35;;;3.15;;
43678;SDS011;29279;50.858;4.392;2022-09-02T06:28:17;10.52;;;4.07;;
43678;SDS011;29279;50.858;4.392;2022-09-02T06:30:43;10.25;;;4.10;;
43678;SDS011;29279;50.858;4.392;2022-09-02T06:33:10;7.75;;;4.18;;
43678;SDS011;29279;50.858;4.392;2022-09-02T06:35:37;7.18;;;3.60;;
43678;SDS011;29279;50.858;4.392;2022-09-02T06:38:06;17.55;;;4.20;;
43678;SDS011;29279;50.858;4.392;2022-09-02T06:40:32;7.38;;;3.60;;
43678;SDS011;29279;50.858;4.392;2022-09-02T06:42:58;12.07;;;4.00;;
43678;SDS011;29279;50.858;4.392;2022-09-02T06:45:23;10.65;;;3.67;;
43678;SDS011;29279;50.858;4.392;2022-09-02T06:47:50;9.25;;;4.28;;
43678;SDS011;29279;50.858;4.392;2022-09-02T06:50:17;10.73;;;3.78;;
43678;SDS011;29279;50.858;4.392;2022-09-02T06:52:43;9.32;;;3.67;;
43678;SDS011;29279;50.858;4.392;2022-09-02T06:55:09;10.65;;;3.22;;
43678;SDS011;29279;50.858;4.392;2022-09-02T06:57:35;13.55;;;3.60;;
43678;SDS011;29279;50.858;4.392;2022-09-02T07:00:04;14.30;;;3.97;;
43678;SDS011;29279;50.858;4.392;2022-09-02T07:02:31;14.18;;;4.03;;
43678;SDS011;29279;50.858;4.392;2022-09-02T07:04:57;12.25;;;3.13;;
43678;SDS011;29279;50.858;4.392;2022-09-02T07:07:35;8.55;;;3.40;;
43678;SDS011;29279;50.858;4.392;2022-09-02T07:10:05;7.07;;;3.40;;
43678;SDS011;29279;50.858;4.392;2022-09-02T07:12:33;11.32;;;3.60;;
43678;SDS011;29279;50.858;4.392;2022-09-02T07:15:00;12.68;;;3.60;;
43678;SDS011;29279;50.858;4.392;2022-09-02T07:17:26;7.65;;;3.20;;
43678;SDS011;29279;50.858;4.392;2022-09-02T07:19:52;11.85;;;2.90;;
43678;SDS011;29279;50.858;4.392;2022-09-02T07:22:20;7.82;;;3.80;;
43678;SDS011;29279;50.858;4.392;2022-09-02T07:24:45;7.15;;;3.65;;
43678;SDS011;29279;50.858;4.392;2022-09-02T07:27:11;11.52;;;3.17;;
43678;SDS011;29279;50.858;4.392;2022-09-02T07:29:37;7.15;;;3.15;;
43678;SDS011;29279;50.858;4.392;2022-09-02T07:32:03;4.00;;;2.80;;
43678;SDS011;29279;50.858;4.392;2022-09-02T07:34:29;7.03;;;2.75;;
43678;SDS011;29279;50.858;4.392;2022-09-02T07:36:55;6.13;;;2.72;;
43678;SDS011;29279;50.858;4.392;2022-09-02T07:39:20;6.72;;;2.90;;
43678;SDS011;29279;50.858;4.392;2022-09-02T07:41:48;6.57;;;3.47;;
43678;SDS011;29279;50.858;4.392;2022-09-02T07:44:15;9.95;;;2.83;;
43678;SDS011;29279;50.858;4.392;2022-09-02T07:46:43;7.50;;;2.67;;
43678;SDS011;29279;50.858;4.392;2022-09-02T07:49:09;7.32;;;3.22;;
43678;SDS011;29279;50.858;4.392;2022-09-02T07:51:37;6.70;;;2.90;;
43678;SDS011;29279;50.858;4.392;2022-09-02T07:54:05;4.53;;;2.70;;
43678;SDS011;29279;50.858;4.392;2022-09-02T07:56:31;5.53;;;2.70;;
43678;SDS011;29279;50.858;4.392;2022-09-02T07:58:57;8.65;;;2.63;;
43678;SDS011;29279;50.858;4.392;2022-09-02T08:01:24;5.30;;;2.67;;
43678;SDS011;29279;50.858;4.392;2022-09-02T08:03:50;5.72;;;2.88;;
43678;SDS011;29279;50.858;4.392;2022-09-02T08:06:16;3.30;;;2.72;;
43678;SDS011;29279;50.858;4.392;2022-09-02T08:08:44;5.00;;;3.05;;
43678;SDS011;29279;50.858;4.392;2022-09-02T08:11:09;6.82;;;3.28;;
43678;SDS011;29279;50.858;4.392;2022-09-02T08:13:36;6.10;;;2.88;;
43678;SDS011;29279;50.858;4.392;2022-09-02T08:16:03;4.25;;;3.00;;
43678;SDS011;29279;50.858;4.392;2022-09-02T08:18:29;7.47;;;3.15;;
43678;SDS011;29279;50.858;4.392;2022-09-02T08:20:54;6.40;;;3.40;;
43678;SDS011;29279;50.858;4.392;2022-09-02T08:23:20;9.95;;;3.08;;
43678;SDS011;29279;50.858;4.392;2022-09-02T08:25:46;7.90;;;2.88;;
43678;SDS011;29279;50.858;4.392;2022-09-02T08:28:11;5.55;;;3.08;;
43678;SDS011;29279;50.858;4.392;2022-09-02T08:30:37;6.60;;;2.97;;
43678;SDS011;29279;50.858;4.392;2022-09-02T08:33:04;5.35;;;2.80;;
43678;SDS011;29279;50.858;4.392;2022-09-02T08:35:30;4.70;;;3.10;;
43678;SDS011;29279;50.858;4.392;2022-09-02T08:37:59;7.05;;;2.55;;
43678;SDS011;29279;50.858;4.392;2022-09-02T08:40:27;4.68;;;2.72;;
43678;SDS011;29279;50.858;4.392;2022-09-02T08:43:06;4.65;;;3.05;;
43678;SDS011;29279;50.858;4.392;2022-09-02T08:46:02;6.63;;;2.90;;
43678;SDS011;29279;50.858;4.392;2022-09-02T08:51:15;7.30;;;3.15;;
43678;SDS011;29279;50.858;4.392;2022-09-02T08:53:48;9.35;;;3.60;;
43678;SDS011;29279;50.858;4.392;2022-09-02T08:56:18;11.32;;;2.90;;
43678;SDS011;29279;50.858;4.392;2022-09-02T08:58:47;5.93;;;3.40;;
43678;SDS011;29279;50.858;4.392;2022-09-02T09:01:32;3.17;;;2.72;;
43678;SDS011;29279;50.858;4.392;2022-09-02T09:15:12;5.20;;;3.70;;
43678;SDS011;29279;50.858;4.392;2022-09-02T09:17:55;4.60;;;2.97;;
43678;SDS011;29279;50.858;4.392;2022-09-02T09:20:24;5.50;;;3.20;;
43678;SDS011;29279;50.858;4.392;2022-09-02T09:22:56;13.77;;;2.85;;
43678;SDS011;29279;50.858;4.392;2022-09-02T09:25:23;5.10;;;3.22;;
43678;SDS011;29279;50.858;4.392;2022-09-02T09:27:56;8.10;;;3.10;;
43678;SDS011;29279;50.858;4.392;2022-09-02T09:30:23;5.93;;;2.75;;
43678;SDS011;29279;50.858;4.392;2022-09-02T09:32:50;8.45;;;2.97;;
43678;SDS011;29279;50.858;4.392;2022-09-02T09:35:21;8.77;;;2.83;;
43678;SDS011;29279;50.858;4.392;2022-09-02T09:37:51;9.88;;;2.55;;
43678;SDS011;29279;50.858;4.392;2022-09-02T09:48:05;7.75;;;2.63;;
43678;SDS011;29279;50.858;4.392;2022-09-02T09:50:38;4.95;;;2.33;;
43678;SDS011;29279;50.858;4.392;2022-09-02T09:53:17;4.95;;;3.13;;
43678;SDS011;29279;50.858;4.392;2022-09-02T10:01:22;5.97;;;3.17;;
43678;SDS011;29279;50.858;4.392;2022-09-02T10:03:57;4.68;;;2.47;;
43678;SDS011;29279;50.858;4.392;2022-09-02T10:06:47;6.45;;;2.83;;
43678;SDS011;29279;50.858;4.392;2022-09-02T10:11:38;5.72;;;2.47;;
43678;SDS011;29279;50.858;4.392;2022-09-02T10:14:44;4.70;;;2.30;;
43678;SDS011;29279;50.858;4.392;2022-09-02T10:19:51;3.72;;;1.95;;
43678;SDS011;29279;50.858;4.392;2022-09-02T10:30:39;2.60;;;1.85;;
43678;SDS011;29279;50.858;4.392;2022-09-02T10:36:53;3.00;;;1.85;;
43678;SDS011;29279;50.858;4.392;2022-09-02T10:45:23;10.43;;;2.90;;
43678;SDS011;29279;50.858;4.392;2022-09-02T10:51:05;4.20;;;1.88;;
43678;SDS011;29279;50.858;4.392;2022-09-02T10:56:22;6.55;;;1.70;;
43678;SDS011;29279;50.858;4.392;2022-09-02T10:58:58;10.38;;;1.77;;
43678;SDS011;29279;50.858;4.392;2022-09-02T11:01:27;3.40;;;1.92;;
43678;SDS011;29279;50.858;4.392;2022-09-02T11:06:59;5.40;;;2.30;;
43678;SDS011;29279;50.858;4.392;2022-09-02T11:09:36;4.68;;;1.90;;
43678;SDS011;29279;50.858;4.392;2022-09-02T11:12:29;3.65;;;1.52;;
43678;SDS011;29279;50.858;4.392;2022-09-02T11:20:40;13.05;;;2.15;;
43678;SDS011;29279;50.858;4.392;2022-09-02T11:26:18;5.40;;;2.10;;
43678;SDS011;29279;50.858;4.392;2022-09-02T11:28:53;5.72;;;1.52;;
43678;SDS011;29279;50.858;4.392;2022-09-02T11:36:41;5.10;;;1.60;;
43678;SDS011;29279;50.858;4.392;2022-09-02T11:39:09;6.15;;;1.60;;
43678;SDS011;29279;50.858;4.392;2022-09-02T11:44:43;2.90;;;1.40;;
43678;SDS011;29279;50.858;4.392;2022-09-02T11:52:47;3.95;;;1.20;;
43678;SDS011;29279;50.858;4.392;2022-09-02T11:55:31;9.57;;;2.05;;
43678;SDS011;29279;50.858;4.392;2022-09-02T11:58:01;6.60;;;2.17;;
43678;SDS011;29279;50.858;4.392;2022-09-02T12:00:34;6.18;;;1.60;;
43678;SDS011;29279;50.858;4.392;2022-09-02T12:03:23;2.28;;;1.25;;
43678;SDS011;29279;50.858;4.392;2022-09-02T12:18:37;3.33;;;1.48;;
43678;SDS011;29279;50.858;4.392;2022-09-02T12:21:07;3.22;;;1.48;;
43678;SDS011;29279;50.858;4.392;2022-09-02T12:26:14;4.65;;;1.50;;
43678;SDS011;29279;50.858;4.392;2022-09-02T12:28:44;3.13;;;1.10;;
43678;SDS011;29279;50.858;4.392;2022-09-02T12:33:58;4.45;;;1.25;;
43678;SDS011;29279;50.858;4.392;2022-09-02T12:41:45;1.65;;;1.10;;
43678;SDS011;29279;50.858;4.392;2022-09-02T12:44:23;2.33;;;1.25;;
43678;SDS011;29279;50.858;4.392;2022-09-02T12:47:21;3.55;;;1.02;;
43678;SDS011;29279;50.858;4.392;2022-09-02T12:50:01;5.75;;;1.30;;
43678;SDS011;29279;50.858;4.392;2022-09-02T12:57:48;3.85;;;1.38;;
43678;SDS011;29279;50.858;4.392;2022-09-02T13:00:18;3.58;;;1.38;;
43678;SDS011;29279;50.858;4.392;2022-09-02T13:26:35;1.50;;;1.13;;
43678;SDS011;29279;50.858;4.392;2022-09-02T13:31:19;6.13;;;1.27;;
43678;SDS011;29279;50.858;4.392;2022-09-02T13:33:58;2.00;;;1.00;;
43678;SDS011;29279;50.858;4.392;2022-09-02T13:36:27;4.28;;;1.30;;
43678;SDS011;29279;50.858;4.392;2022-09-02T13:38:55;1.67;;;1.00;;
43678;SDS011;29279;50.858;4.392;2022-09-02T13:41:33;1.95;;;1.10;;
43678;SDS011;29279;50.858;4.392;2022-09-02T13:44:09;4.00;;;1.40;;
43678;SDS011;29279;50.858;4.392;2022-09-02T13:46:43;2.65;;;1.10;;
43678;SDS011;29279;50.858;4.392;2022-09-02T13:49:16;5.95;;;1.00;;
43678;SDS011;29279;50.858;4.392;2022-09-02T13:51:55;2.97;;;1.40;;
43678;SDS011;29279;50.858;4.392;2022-09-02T13:54:23;3.33;;;1.70;;
43678;SDS011;29279;50.858;4.392;2022-09-02T13:56:57;2.17;;;1.30;;
43678;SDS011;29279;50.858;4.392;2022-09-02T13:59:32;3.78;;;1.25;;
43678;SDS011;29279;50.858;4.392;2022-09-02T14:02:14;6.45;;;0.88;;
43678;SDS011;29279;50.858;4.392;2022-09-02T14:04:41;5.47;;;1.40;;
43678;SDS011;29279;50.858;4.392;2022-09-02T14:07:07;4.65;;;1.40;;
43678;SDS011;29279;50.858;4.392;2022-09-02T14:09:34;1.73;;;1.23;;
43678;SDS011;29279;50.858;4.392;2022-09-02T14:12:02;2.35;;;1.52;;
43678;SDS011;29279;50.858;4.392;2022-09-02T14:14:30;2.70;;;1.23;;
43678;SDS011;29279;50.858;4.392;2022-09-02T14:19:41;2.40;;;1.10;;
43678;SDS011;29279;50.858;4.392;2022-09-02T14:22:07;1.95;;;1.10;;
43678;SDS011;29279;50.858;4.392;2022-09-02T14:24:53;3.92;;;1.20;;
43678;SDS011;29279;50.858;4.392;2022-09-02T14:27:20;5.18;;;1.48;;
43678;SDS011;29279;50.858;4.392;2022-09-02T14:29:51;3.33;;;1.48;;
43678;SDS011;29279;50.858;4.392;2022-09-02T14:32:20;7.00;;;1.23;;
43678;SDS011;29279;50.858;4.392;2022-09-02T14:35:18;3.33;;;1.48;;
43678;SDS011;29279;50.858;4.392;2022-09-02T14:37:47;2.08;;;1.27;;
43678;SDS011;29279;50.858;4.392;2022-09-02T14:40:14;1.23;;;1.10;;
43678;SDS011;29279;50.858;4.392;2022-09-02T14:42:48;2.80;;;1.30;;
43678;SDS011;29279;50.858;4.392;2022-09-02T14:45:23;2.30;;;1.30;;
43678;SDS011;29279;50.858;4.392;2022-09-02T14:47:58;3.38;;;1.00;;
43678;SDS011;29279;50.858;4.392;2022-09-02T14:50:28;2.25;;;1.08;;
43678;SDS011;29279;50.858;4.392;2022-09-02T14:53:05;4.30;;;1.05;;
43678;SDS011;29279;50.858;4.392;2022-09-02T14:55:52;1.38;;;1.02;;
43678;SDS011;29279;50.858;4.392;2022-09-02T14:58:20;7.57;;;0.82;;
43678;SDS011;29279;50.858;4.392;2022-09-02T15:00:48;6.20;;;1.38;;
43678;SDS011;29279;50.858;4.392;2022-09-02T15:05:46;1.92;;;1.00;;
43678;SDS011;29279;50.858;4.392;2022-09-02T15:08:12;3.55;;;1.20;;
43678;SDS011;29279;50.858;4.392;2022-09-02T15:10:39;2.00;;;1.25;;
43678;SDS011;29279;50.858;4.392;2022-09-02T15:13:06;2.50;;;0.90;;
43678;SDS011;29279;50.858;4.392;2022-09-02T15:15:36;1.83;;;1.10;;
43678;SDS011;29279;50.858;4.392;2022-09-02T15:18:02;1.95;;;1.10;;
43678;SDS011;29279;50.858;4.392;2022-09-02T15:20:29;2.30;;;0.73;;
43678;SDS011;29279;50.858;4.392;2022-09-02T15:22:55;2.22;;;0.80;;
43678;SDS011;29279;50.858;4.392;2022-09-02T15:25:21;9.35;;;1.63;;
43678;SDS011;29279;50.858;4.392;2022-09-02T15:27:47;1.60;;;1.08;;
43678;SDS011;29279;50.858;4.392;2022-09-02T15:30:12;1.80;;;1.10;;
43678;SDS011;29279;50.858;4.392;2022-09-02T15:32:38;7.68;;;0.93;;
43678;SDS011;29279;50.858;4.392;2022-09-02T15:35:05;3.97;;;1.20;;
43678;SDS011;29279;50.858;4.392;2022-09-02T15:37:32;4.15;;;1.20;;
43678;SDS011;29279;50.858;4.392;2022-09-02T15:40:05;2.42;;;1.10;;
43678;SDS011;29279;50.858;4.392;2022-09-02T15:42:36;3.10;;;1.40;;
43678;SDS011;29279;50.858;4.392;2022-09-02T15:45:03;5.05;;;0.82;;
43678;SDS011;29279;50.858;4.392;2022-09-02T15:47:36;1.92;;;0.80;;
43678;SDS011;29279;50.858;4.392;2022-09-02T15:50:03;4.30;;;1.40;;
43678;SDS011;29279;50.858;4.392;2022-09-02T15:52:29;5.30;;;1.35;;
43678;SDS011;29279;50.858;4.392;2022-09-02T15:54:55;3.50;;;1.27;;
43678;SDS011;29279;50.858;4.392;2022-09-02T15:57:21;1.75;;;1.10;;
43678;SDS011;29279;50.858;4.392;2022-09-02T15:59:47;2.17;;;1.00;;
43678;SDS011;29279;50.858;4.392;2022-09-02T16:02:12;2.65;;;1.20;;
43678;SDS011;29279;50.858;4.392;2022-09-02T16:04:39;1.35;;;1.10;;
43678;SDS011;29279;50.858;4.392;2022-09-02T16:07:04;6.75;;;1.42;;
43678;SDS011;29279;50.858;4.392;2022-09-02T16:09:30;3.78;;;1.00;;
43678;SDS011;29279;50.858;4.392;2022-09-02T16:11:56;4.13;;;1.15;;
43678;SDS011;29279;50.858;4.392;2022-09-02T16:14:22;4.93;;;1.30;;
43678;SDS011;29279;50.858;4.392;2022-09-02T16:16:49;3.15;;;0.98;;
43678;SDS011;29279;50.858;4.392;2022-09-02T16:19:20;3.05;;;1.48;;
43678;SDS011;29279;50.858;4.392;2022-09-02T16:21:47;4.15;;;1.13;;
43678;SDS011;29279;50.858;4.392;2022-09-02T16:24:13;9.45;;;1.40;;
43678;SDS011;29279;50.858;4.392;2022-09-02T16:26:39;1.92;;;1.30;;
43678;SDS011;29279;50.858;4.392;2022-09-02T16:29:07;1.75;;;1.23;;
43678;SDS011;29279;50.858;4.392;2022-09-02T16:31:35;1.92;;;0.93;;
43678;SDS011;29279;50.858;4.392;2022-09-02T16:34:03;4.00;;;1.73;;
43678;SDS011;29279;50.858;4.392;2022-09-02T16:36:31;3.88;;;1.50;;
43678;SDS011;29279;50.858;4.392;2022-09-02T16:38:58;1.60;;;1.20;;
43678;SDS011;29279;50.858;4.392;2022-09-02T16:43:58;7.57;;;1.80;;
43678;SDS011;29279;50.858;4.392;2022-09-02T16:46:26;2.60;;;1.30;;
43678;SDS011;29279;50.858;4.392;2022-09-02T16:48:53;5.50;;;1.70;;
43678;SDS011;29279;50.858;4.392;2022-09-02T16:51:22;3.20;;;1.50;;
43678;SDS011;29279;50.858;4.392;2022-09-02T16:54:08;7.22;;;1.52;;
43678;SDS011;29279;50.858;4.392;2022-09-02T16:56:34;4.22;;;1.10;;
43678;SDS011;29279;50.858;4.392;2022-09-02T16:59:02;2.92;;;1.55;;
43678;SDS011;29279;50.858;4.392;2022-09-02T17:01:30;5.45;;;1.38;;
43678;SDS011;29279;50.858;4.392;2022-09-02T17:03:56;4.47;;;1.30;;
43678;SDS011;29279;50.858;4.392;2022-09-02T17:06:23;4.07;;;1.40;;
43678;SDS011;29279;50.858;4.392;2022-09-02T17:08:49;4.15;;;1.23;;
43678;SDS011;29279;50.858;4.392;2022-09-02T17:13:40;5.85;;;1.48;;
43678;SDS011;29279;50.858;4.392;2022-09-02T17:16:06;2.67;;;1.20;;
43678;SDS011;29279;50.858;4.392;2022-09-02T17:18:32;3.38;;;1.80;;
43678;SDS011;29279;50.858;4.392;2022-09-02T17:21:09;4.57;;;1.77;;
43678;SDS011;29279;50.858;4.392;2022-09-02T17:23:44;3.17;;;1.20;;
43678;SDS011;29279;50.858;4.392;2022-09-02T17:26:10;2.10;;;1.17;;